Home > Products > Valid Products > MTR

000
SAUS45 KPUB 121557
MTRSPD
METAR KSPD 121556Z AUTO VRB04KT 10/M03 A3034 RMK AO1 SLP263
T01001028





000
SAUS45 KPUB 121457
MTRSPD
METAR KSPD 121456Z AUTO 00000KT 04/M02 A3034 RMK AO1 SLP267
T00441022 53009





000
SAUS45 KPUB 121357
MTRSPD
METAR KSPD 121356Z AUTO 28006KT M04/M06 A3033 RMK AO1 SLP277
T10441061





000
SAUS45 KPUB 121357
MTRSPD
METAR KSPD 121356Z AUTO 28006KT M04/M06 A3033 RMK AO1 SLP277
T10441061





000
SAUS45 KPUB 121258
MTRSPD
METAR KSPD 121256Z AUTO 27003KT M03/M06 A3031 RMK AO1 SLP260
T10331061





000
SAUS45 KPUB 121157
MTRSPD
METAR KSPD 121156Z AUTO 29009KT M03/M06 A3031 RMK AO1 SLP250
T10281056 10000 21033 53004





000
SAUS45 KPUB 121157
MTRSPD
METAR KSPD 121156Z AUTO 29009KT M03/M06 A3031 RMK AO1 SLP250
T10281056 10000 21033 53004





000
SAUS45 KPUB 121057
MTRSPD
METAR KSPD 121056Z AUTO 29010KT M02/M05 A3030 RMK AO1 SLP240
T10171050





000
SAUS45 KPUB 121057
MTRSPD
METAR KSPD 121056Z AUTO 29010KT M02/M05 A3030 RMK AO1 SLP240
T10171050





000
SAUS45 KPUB 120958
MTRSPD
METAR KSPD 120956Z AUTO 30010KT M02/M06 A3030 RMK AO1 SLP240
T10221056





000
SAUS45 KPUB 120958
MTRSPD
METAR KSPD 120956Z AUTO 30010KT M02/M06 A3030 RMK AO1 SLP240
T10221056





000
SAUS45 KPUB 120857
MTRSPD
METAR KSPD 120856Z AUTO 29010KT M02/M05 A3030 RMK AO1 SLP238
T10171050 53007





000
SAUS45 KPUB 120758
MTRSPD
METAR KSPD 120756Z AUTO 30009KT M01/M04 A3027 RMK AO1 SLP227
T10061044





000
SAUS45 KPUB 120657
MTRSPD
METAR KSPD 120656Z AUTO 31009KT M02/M06 A3027 RMK AO1 SLP230
T10171056 402061044





000
SAUS45 KPUB 120657
MTRSPD
METAR KSPD 120656Z AUTO 31009KT M02/M06 A3027 RMK AO1 SLP230
T10171056 402061044





000
SAUS45 KPUB 120557
MTRSPD
METAR KSPD 120556Z AUTO 30009KT 00/M06 A3027 RMK AO1 SLP232
T00001056 10156 21022 51020





000
SAUS45 KPUB 120557
MTRSPD
METAR KSPD 120556Z AUTO 30009KT 00/M06 A3027 RMK AO1 SLP232
T00001056 10156 21022 51020





000
SAUS45 KPUB 120457
MTRSPD
METAR KSPD 120456Z AUTO 31009KT M01/M06 A3026 RMK AO1 SLP232
T10061061





000
SAUS45 KPUB 120457
MTRSPD
METAR KSPD 120456Z AUTO 31009KT M01/M06 A3026 RMK AO1 SLP232
T10061061





000
SAUS45 KPUB 120357
MTRSPD
METAR KSPD 120356Z AUTO 34004KT 01/M06 A3022 RMK AO1 SLP222
T00111061





000
SAUS45 KPUB 120357
MTRSPD
METAR KSPD 120356Z AUTO 34004KT 01/M06 A3022 RMK AO1 SLP222
T00111061





000
SAUS45 KPUB 120258
MTRSPD
METAR KSPD 120256Z AUTO 04011KT 04/M06 A3021 RMK AO1 SLP223
T00391056 53028





000
SAUS45 KPUB 120258
MTRSPD
METAR KSPD 120256Z AUTO 04011KT 04/M06 A3021 RMK AO1 SLP223
T00391056 53028





000
SAUS45 KPUB 120157
MTRSPD
METAR KSPD 120156Z AUTO 36009KT 06/M06 A3017 RMK AO1 SLP220
T00561061





000
SAUS45 KPUB 120157
MTRSPD
METAR KSPD 120156Z AUTO 36009KT 06/M06 A3017 RMK AO1 SLP220
T00561061





000
SAUS45 KPUB 120057
MTRSPD
METAR KSPD 120056Z AUTO 02008KT 10/M07 A3014 RMK AO1 SLP203
T01001072





000
SAUS45 KPUB 120057
MTRSPD
METAR KSPD 120056Z AUTO 02008KT 10/M07 A3014 RMK AO1 SLP203
T01001072





000
SAUS45 KPUB 112357
MTRSPD
METAR KSPD 112356Z AUTO 36007KT 16/M07 A3011 RMK AO1 SLP181
T01611072 10206 20161 53006





000
SAUS45 KPUB 112357
MTRSPD
METAR KSPD 112356Z AUTO 36007KT 16/M07 A3011 RMK AO1 SLP181
T01611072 10206 20161 53006





000
SAUS45 KPUB 112257
MTRSPD
METAR KSPD 112256Z AUTO 35008KT 18/M09 A3010 RMK AO1 SLP171
T01831094





000
SAUS45 KPUB 112257
MTRSPD
METAR KSPD 112256Z AUTO 35008KT 18/M09 A3010 RMK AO1 SLP171
T01831094





000
SAUS45 KPUB 112158
MTRSPD
METAR KSPD 112156Z AUTO 27005KT 20/M13 A3009 RMK AO1 SLP164
T02001128





000
SAUS45 KPUB 112057
MTRSPD
METAR KSPD 112056Z AUTO 26007KT 19/M13 A3009 RMK AO1 SLP162
T01941128 56027





000
SAUS45 KPUB 112057
MTRSPD
METAR KSPD 112056Z AUTO 26007KT 19/M13 A3009 RMK AO1 SLP162
T01941128 56027





000
SAUS45 KPUB 111957
MTRSPD
METAR KSPD 111956Z AUTO 23012G16KT 200V260 19/M11 A3011 RMK AO1
SLP165 T01941111





000
SAUS45 KPUB 111857
MTRSPD
METAR KSPD 111856Z AUTO 22013G16KT 18/M09 A3015 RMK AO1 SLP183
T01831094





000
SAUS45 KPUB 111757
MTRSPD
METAR KSPD 111756Z AUTO 22008KT 190V250 16/M08 A3018 RMK AO1 SLP198
T01611078 10161 21044 58007





000
SAUS45 KPUB 111757
MTRSPD
METAR KSPD 111756Z AUTO 22008KT 190V250 16/M08 A3018 RMK AO1 SLP198
T01611078 10161 21044 58007





000
SAUS45 KPUB 111657
MTRSPD
METAR KSPD 111656Z AUTO 23008KT 13/M06 A3019 RMK AO1 SLP200
T01331061





000
SAUS45 KPUB 111657
MTRSPD
METAR KSPD 111656Z AUTO 23008KT 13/M06 A3019 RMK AO1 SLP200
T01331061





000
SAUS45 KPUB 111558
MTRSPD
METAR KSPD 111556Z AUTO 25007KT 11/M06 A3019 RMK AO1 SLP210
T01111056





000
SAUS45 KPUB 111458
MTRSPD
METAR KSPD 111456Z AUTO 25004KT 03/M05 A3020 RMK AO1 SLP228
T00331050 53002





000
SAUS45 KPUB 111357
MTRSPD
METAR KSPD 111356Z AUTO 29008KT M03/M08 A3019 RMK AO1 SLP233
T10331078





000
SAUS45 KPUB 111357
MTRSPD
METAR KSPD 111356Z AUTO 29008KT M03/M08 A3019 RMK AO1 SLP233
T10331078





000
SAUS45 KPUB 111257
MTRSPD
METAR KSPD 111256Z AUTO 29007KT M04/M08 A3019 RMK AO1 SLP219
T10391078





000
SAUS45 KPUB 111257
MTRSPD
METAR KSPD 111256Z AUTO 29007KT M04/M08 A3019 RMK AO1 SLP219
T10391078





000
SAUS45 KPUB 111157
MTRSPD
METAR KSPD 111156Z AUTO 29011KT M03/M07 A3020 RMK AO1 SLP205 7////
T10281072 10028 21028 52006





000
SAUS45 KPUB 111157
MTRSPD
METAR KSPD 111156Z AUTO 29011KT M03/M07 A3020 RMK AO1 SLP205 7////
T10281072 10028 21028 52006





000
SAUS45 KPUB 111058
MTRSPD
METAR KSPD 111056Z AUTO 30008KT M02/M07 A3019 RMK AO1 SLP197
T10171067





000
SAUS45 KPUB 111058
MTRSPD
METAR KSPD 111056Z AUTO 30008KT M02/M07 A3019 RMK AO1 SLP197
T10171067





000
SAUS45 KPUB 110957
MTRSPD
METAR KSPD 110956Z AUTO 29009KT M01/M07 A3018 RMK AO1 SLP190
T10111072





000
SAUS45 KPUB 110858
MTRSPD
METAR KSPD 110856Z AUTO 30011KT 01/M06 A3018 RMK AO1 SLP187
T00061061 51008





000
SAUS45 KPUB 110858
MTRSPD
METAR KSPD 110856Z AUTO 30011KT 01/M06 A3018 RMK AO1 SLP187
T00061061 51008





000
SAUS45 KPUB 110757
MTRSPD
METAR KSPD 110756Z AUTO 28008KT 02/M06 A3018 RMK AO1 SLP185
T00221056





000
SAUS45 KPUB 110657
MTRSPD
METAR KSPD 110656Z AUTO 30010KT 01/M06 A3017 RMK AO1 SLP184
T00111061 402391039





000
SAUS45 KPUB 110657
MTRSPD
METAR KSPD 110656Z AUTO 30010KT 01/M06 A3017 RMK AO1 SLP184
T00111061 402391039





000
SAUS45 KPUB 110557
MTRSPD
METAR KSPD 110556Z AUTO 29008KT 01/M07 A3015 RMK AO1 SLP180
T00111067 10189 20000 51019





000
SAUS45 KPUB 110557
MTRSPD
METAR KSPD 110556Z AUTO 29008KT 01/M07 A3015 RMK AO1 SLP180
T00111067 10189 20000 51019





000
SAUS45 KPUB 110457
MTRSPD
METAR KSPD 110456Z AUTO 36004KT 05/M07 A3014 RMK AO1 SLP175
T00501072





000
SAUS45 KPUB 110457
MTRSPD
METAR KSPD 110456Z AUTO 36004KT 05/M07 A3014 RMK AO1 SLP175
T00501072





000
SAUS45 KPUB 110357
MTRSPD
METAR KSPD 110356Z AUTO 02/M08 A3013 RMK AO1 PRESRR SLP179 T00171083





000
SAUS45 KPUB 110259
MTRSPD
METAR KSPD 110256Z AUTO 24008KT 01/M09 A3009 RMK AO1 SLP176
T00111089 50005





000
SAUS45 KPUB 110259
MTRSPD
METAR KSPD 110256Z AUTO 24008KT 01/M09 A3009 RMK AO1 SLP176
T00111089 50005





000
SAUS45 KPUB 110158
MTRSPD
METAR KSPD 110156Z AUTO 29007KT 03/M10 A3009 RMK AO1 SLP185
T00281100





000
SAUS45 KPUB 110158
MTRSPD
METAR KSPD 110156Z AUTO 29007KT 03/M10 A3009 RMK AO1 SLP185
T00281100





000
SAUS45 KPUB 110057
MTRSPD
METAR KSPD 110056Z AUTO 30008KT 11/M12 A3008 RMK AO1 SLP168
T01061117





000
SAUS45 KPUB 110057
MTRSPD
METAR KSPD 110056Z AUTO 30008KT 11/M12 A3008 RMK AO1 SLP168
T01061117





000
SAUS45 KPUB 102357
MTRSPD
METAR KSPD 102356Z AUTO 31004KT 19/M14 A3007 RMK AO1 SLP153 6////
T01941139 10239 20194 56002





000
SAUS45 KPUB 102357
MTRSPD
METAR KSPD 102356Z AUTO 31004KT 19/M14 A3007 RMK AO1 SLP153 6////
T01941139 10239 20194 56002





000
SAUS45 KPUB 102257
MTRSPD
METAR KSPD 102256Z AUTO 29009KT 23/M15 A3007 RMK AO1 SLP155
T02281150





000
SAUS45 KPUB 102257
MTRSPD
METAR KSPD 102256Z AUTO 29009KT 23/M15 A3007 RMK AO1 SLP155
T02281150





000
SAUS45 KPUB 102157
MTRSPD
METAR KSPD 102156Z AUTO 30011G19KT 23/M15 A3007 RMK AO1 SLP152
T02331150





000
SAUS45 KPUB 102058
MTRSPD
METAR KSPD 102056Z AUTO 30010KT 23/M15 A3008 RMK AO1 SLP152 6////
T02331150 58021





000
SAUS45 KPUB 101957
MTRSPD
METAR KSPD 101956Z AUTO 33014KT 23/M14 A3011 RMK AO1 SLP164
T02281144





000
SAUS45 KPUB 101858
MTRSPD
METAR KSPD 101856Z AUTO 22/M13 A3013 RMK AO1 SLP170 T02221128 PNO $





000
SAUS45 KPUB 101858
MTRSPD
METAR KSPD 101856Z AUTO 22/M13 A3013 RMK AO1 SLP170 T02221128 PNO $





000
SAUS45 KPUB 101757
MTRSPD
METAR KSPD 101756Z AUTO 29018KT 21/M12 A3015 RMK AO1 PK WND
30026/1724 SLP180 6//// T02111122 10211 21006 58003 PNO $





000
SAUS45 KPUB 101757
MTRSPD
METAR KSPD 101756Z AUTO 29018KT 21/M12 A3015 RMK AO1 PK WND
30026/1724 SLP180 6//// T02111122 10211 21006 58003 PNO $





000
SAUS45 KPUB 101657
MTRSPD
METAR KSPD 101656Z AUTO 29017G23KT 19/M12 A3016 RMK AO1 SLP189
T01891117 PNO $





000
SAUS45 KPUB 101657
MTRSPD
METAR KSPD 101656Z AUTO 29017G23KT 19/M12 A3016 RMK AO1 SLP189
T01891117 PNO $





000
SAUS45 KPUB 101557
MTRSPD
METAR KSPD 101556Z AUTO 29015G24KT 16/M11 A3016 RMK AO1 SLP197
T01561106 PNO $





000
SAUS45 KPUB 101457
MTRSPD
METAR KSPD 101456Z AUTO 28013KT 09/M08 A3016 RMK AO1 SLP204
T00941083 56004





000
SAUS45 KPUB 101357
MTRSPD
METAR KSPD 101356Z AUTO 28014KT 04/M08 A3016 RMK AO1 SLP210
T00391083





000
SAUS45 KPUB 101258
MTRSPD
METAR KSPD 101256Z AUTO 28013KT 03/M07 A3016 RMK AO1 SLP209
T00331072





000
SAUS45 KPUB 101258
MTRSPD
METAR KSPD 101256Z AUTO 28013KT 03/M07 A3016 RMK AO1 SLP209
T00331072





000
SAUS45 KPUB 101158
MTRSPD
METAR KSPD 101156Z AUTO 28009KT 01/M07 A3017 RMK AO1 SLP205
T00111067 10033 21039 56015





000
SAUS45 KPUB 101158
MTRSPD
METAR KSPD 101156Z AUTO 28009KT 01/M07 A3017 RMK AO1 SLP205
T00111067 10033 21039 56015





000
SAUS45 KPUB 101057
MTRSPD
METAR KSPD 101056Z AUTO 24004KT M03/M07 A3017 RMK AO1 SLP207
T10331072





000
SAUS45 KPUB 101057
MTRSPD
METAR KSPD 101056Z AUTO 24004KT M03/M07 A3017 RMK AO1 SLP207
T10331072





000
SAUS45 KPUB 100957
MTRSPD
METAR KSPD 100956Z AUTO VRB04KT M02/M07 A3020 RMK AO1 SLP212
T10171072





000
SAUS45 KPUB 100857
MTRSPD
METAR KSPD 100856Z AUTO 24010KT 00/M07 A3022 RMK AO1 SLP218
T00001067 58018





000
SAUS45 KPUB 100857
MTRSPD
METAR KSPD 100856Z AUTO 24010KT 00/M07 A3022 RMK AO1 SLP218
T00001067 58018





000
SAUS45 KPUB 100758
MTRSPD
METAR KSPD 100756Z AUTO 24011KT 01/M06 A3024 RMK AO1 SLP224
T00111056





000
SAUS45 KPUB 100657
MTRSPD
METAR KSPD 100656Z AUTO 25012KT 02/M05 A3026 RMK AO1 SLP229
T00171050 401501033





000
SAUS45 KPUB 100657
MTRSPD
METAR KSPD 100656Z AUTO 25012KT 02/M05 A3026 RMK AO1 SLP229
T00171050 401501033





000
SAUS45 KPUB 100557
MTRSPD
METAR KSPD 100556Z AUTO 24003KT M01/M05 A3028 RMK AO1 SLP240
T10061050 10094 21033 58006





000
SAUS45 KPUB 100557
MTRSPD
METAR KSPD 100556Z AUTO 24003KT M01/M05 A3028 RMK AO1 SLP240
T10061050 10094 21033 58006





000
SAUS45 KPUB 100458
MTRSPD
METAR KSPD 100456Z AUTO 24005KT M02/M05 A3030 RMK AO1 SLP249
T10171050





000
SAUS45 KPUB 100458
MTRSPD
METAR KSPD 100456Z AUTO 24005KT M02/M05 A3030 RMK AO1 SLP249
T10171050





000
SAUS45 KPUB 100357
MTRSPD
METAR KSPD 100356Z AUTO VRB03KT M02/M06 A3030 RMK AO1 SLP253
T10171056





000
SAUS45 KPUB 100258
MTRSPD
METAR KSPD 100256Z AUTO 26004KT M01/M05 A3030 RMK AO1 SLP263
T10061050 50002





000
SAUS45 KPUB 100157
MTRSPD
METAR KSPD 100156Z AUTO 28009KT 01/M04 A3032 RMK AO1 SLP274
T00111044





000
SAUS45 KPUB 100058
MTRSPD
METAR KSPD 100056Z AUTO 31007KT 04/M04 A3031 RMK AO1 SLP268
T00391044





000
SAUS45 KPUB 100058
MTRSPD
METAR KSPD 100056Z AUTO 31007KT 04/M04 A3031 RMK AO1 SLP268
T00391044





000
SAUS45 KPUB 092358
MTRSPD
METAR KSPD 092356Z AUTO 35011KT 09/M03 A3030 RMK AO1 SLP253
T00941033 10150 20094 51006





000
SAUS45 KPUB 092358
MTRSPD
METAR KSPD 092356Z AUTO 35011KT 09/M03 A3030 RMK AO1 SLP253
T00941033 10150 20094 51006





000
SAUS45 KPUB 092258
MTRSPD
METAR KSPD 092256Z AUTO 01014KT 13/M03 A3029 RMK AO1 SLP246
T01281033





000
SAUS45 KPUB 092258
MTRSPD
METAR KSPD 092256Z AUTO 01014KT 13/M03 A3029 RMK AO1 SLP246
T01281033





000
SAUS45 KPUB 092158
MTRSPD
METAR KSPD 092156Z AUTO 35014KT 14/M04 A3029 RMK AO1 PK WND
35026/2131 SLP242 T01391039





000
SAUS45 KPUB 092059
MTRSPD
METAR KSPD 092056Z AUTO 35017G25KT 14/M05 A3028 RMK AO1 PK WND
32028/2012 SLP237 T01391050 56010





000
SAUS45 KPUB 091957
MTRSPD
METAR KSPD 091956Z AUTO 35018G29KT 14/M06 A3028 RMK AO1 PK WND
32030/1901 SLP239 T01441056





000
SAUS45 KPUB 091957
MTRSPD
METAR KSPD 091956Z AUTO 35018G29KT 14/M06 A3028 RMK AO1 PK WND
32030/1901 SLP239 T01441056





000
SAUS45 KPUB 091857
MTRSPD
METAR KSPD 091856Z AUTO 32016G23KT 14/M06 A3030 RMK AO1 PK WND
36030/1807 SLP245 T01441061





000
SAUS45 KPUB 091857
MTRSPD
METAR KSPD 091856Z AUTO 32016G23KT 14/M06 A3030 RMK AO1 PK WND
36030/1807 SLP245 T01441061





000
SAUS45 KPUB 091758
MTRSPD
METAR KSPD 091756Z AUTO 33018G25KT 14/M06 A3031 RMK AO1 PK WND
34027/1728 SLP251 T01391061 10139 21011 58003





000
SAUS45 KPUB 091702 COR
MTRSPD
METAR KSPD 091656Z AUTO 31012G21KT 12/M06 A3032 RMK AO1 SLP255
T01221056





000
SAUS45 KPUB 091658 COR
MTRSPD
METAR KSPD 091656Z AUTO 31012G21KT 12/M06 A3032 RMK AO1 SLP255
T01221056





000
SAUS45 KPUB 091658 COR
MTRSPD
METAR KSPD 091656Z AUTO 31012G21KT 12/M06 A3032 RMK AO1 SLP255
T01221056





    US Dept of Commerce
    National Oceanic and Atmospheric Administration
    National Weather Service
    1325 East West Highway
    Silver Spring, MD 20910
    Page Author: NWS Internet Services Team
Disclaimer
Information Quality
Credits
Glossary
Privacy Policy
Freedom of Information Act (FOIA)
About Us
Career Opportunities